Albion, Rhode Island
Current Conditions -  °F | °C
As of 7:15 AM on Monday 24 Nov 2014 (Local Time) from KSFZ Reporting Station
Overcast Overcast  
Wind Chill: 57°   Ceiling: 400
Heat Index: 57°   Visibility: 7mi
Dew Point: 52°   Wind: 14mph
Humidity: 82%   Direction: 150°SSE
Pressure: 29.81"   Gusts: 25mph
Location:  41.95°N, 71.45°W
Report Text: KSFZ 241215Z 15012G22KT 120V200 7SM OVC004 14/11 A2981 RMK AO1 P0006
Loading
Personal Weather Stations






























Interactive Weather Map New forecast layout! Learn more

10-Day Weather Forecast

Advertisements
Track Severe Weather on mobile